sensor_id;sensor_type;location;lat;lon;timestamp;P1;durP1;ratioP1;P2;durP2;ratioP2
12906;SDS011;6521;50.498;8.474;2022-10-17T00:00:37;6.25;;;5.75;;
12906;SDS011;6521;50.498;8.474;2022-10-17T00:03:08;6.90;;;6.20;;
12906;SDS011;6521;50.498;8.474;2022-10-17T00:05:40;6.93;;;6.33;;
12906;SDS011;6521;50.498;8.474;2022-10-17T00:08:12;6.50;;;5.90;;
12906;SDS011;6521;50.498;8.474;2022-10-17T00:10:44;6.85;;;6.25;;
12906;SDS011;6521;50.498;8.474;2022-10-17T00:13:24;7.22;;;6.63;;
12906;SDS011;6521;50.498;8.474;2022-10-17T00:15:55;7.80;;;7.10;;
12906;SDS011;6521;50.498;8.474;2022-10-17T00:18:27;7.38;;;6.68;;
12906;SDS011;6521;50.498;8.474;2022-10-17T00:20:58;7.25;;;6.65;;
12906;SDS011;6521;50.498;8.474;2022-10-17T00:23:28;8.30;;;6.38;;
12906;SDS011;6521;50.498;8.474;2022-10-17T00:26:00;10.50;;;6.88;;
12906;SDS011;6521;50.498;8.474;2022-10-17T00:28:32;7.03;;;6.43;;
12906;SDS011;6521;50.498;8.474;2022-10-17T00:31:04;7.07;;;6.40;;
12906;SDS011;6521;50.498;8.474;2022-10-17T00:33:36;7.00;;;6.30;;
12906;SDS011;6521;50.498;8.474;2022-10-17T00:36:12;5.97;;;5.38;;
12906;SDS011;6521;50.498;8.474;2022-10-17T00:38:50;5.95;;;5.35;;
12906;SDS011;6521;50.498;8.474;2022-10-17T00:41:24;10.15;;;6.10;;
12906;SDS011;6521;50.498;8.474;2022-10-17T00:44:04;6.10;;;5.60;;
12906;SDS011;6521;50.498;8.474;2022-10-17T00:46:54;5.03;;;4.63;;
12906;SDS011;6521;50.498;8.474;2022-10-17T00:49:32;4.97;;;4.57;;
12906;SDS011;6521;50.498;8.474;2022-10-17T00:52:06;5.38;;;4.78;;
12906;SDS011;6521;50.498;8.474;2022-10-17T00:54:44;4.47;;;4.18;;
12906;SDS011;6521;50.498;8.474;2022-10-17T00:57:18;5.90;;;4.40;;
12906;SDS011;6521;50.498;8.474;2022-10-17T00:59:50;5.10;;;4.70;;
12906;SDS011;6521;50.498;8.474;2022-10-17T01:02:23;5.90;;;5.35;;
12906;SDS011;6521;50.498;8.474;2022-10-17T01:04:55;5.78;;;5.20;;
12906;SDS011;6521;50.498;8.474;2022-10-17T01:07:28;12.23;;;5.80;;
12906;SDS011;6521;50.498;8.474;2022-10-17T01:10:00;5.50;;;5.00;;
12906;SDS011;6521;50.498;8.474;2022-10-17T01:12:34;5.70;;;5.20;;
12906;SDS011;6521;50.498;8.474;2022-10-17T01:15:11;7.97;;;5.13;;
12906;SDS011;6521;50.498;8.474;2022-10-17T01:17:56;4.85;;;4.45;;
12906;SDS011;6521;50.498;8.474;2022-10-17T01:20:46;4.70;;;4.30;;
12906;SDS011;6521;50.498;8.474;2022-10-17T01:23:41;5.10;;;4.70;;
12906;SDS011;6521;50.498;8.474;2022-10-17T01:34:15;4.38;;;3.97;;
12906;SDS011;6521;50.498;8.474;2022-10-17T01:36:52;3.85;;;3.53;;
12906;SDS011;6521;50.498;8.474;2022-10-17T01:39:30;4.10;;;3.80;;
12906;SDS011;6521;50.498;8.474;2022-10-17T01:42:16;3.58;;;3.28;;
12906;SDS011;6521;50.498;8.474;2022-10-17T01:44:57;3.55;;;3.25;;
12906;SDS011;6521;50.498;8.474;2022-10-17T01:47:33;3.58;;;3.28;;
12906;SDS011;6521;50.498;8.474;2022-10-17T01:50:06;3.75;;;3.45;;
12906;SDS011;6521;50.498;8.474;2022-10-17T01:52:46;5.40;;;3.20;;
12906;SDS011;6521;50.498;8.474;2022-10-17T01:55:31;5.50;;;3.45;;
12906;SDS011;6521;50.498;8.474;2022-10-17T02:00:43;3.30;;;3.00;;
12906;SDS011;6521;50.498;8.474;2022-10-17T02:03:16;5.40;;;3.20;;
12906;SDS011;6521;50.498;8.474;2022-10-17T02:05:50;4.57;;;4.10;;
12906;SDS011;6521;50.498;8.474;2022-10-17T02:08:28;4.80;;;4.40;;
12906;SDS011;6521;50.498;8.474;2022-10-17T02:11:42;4.55;;;4.15;;
12906;SDS011;6521;50.498;8.474;2022-10-17T02:16:37;4.38;;;4.07;;
12906;SDS011;6521;50.498;8.474;2022-10-17T02:19:45;4.38;;;4.00;;
12906;SDS011;6521;50.498;8.474;2022-10-17T02:22:26;5.03;;;4.60;;
12906;SDS011;6521;50.498;8.474;2022-10-17T02:31:15;7.68;;;5.43;;
12906;SDS011;6521;50.498;8.474;2022-10-17T02:34:01;5.32;;;4.80;;
12906;SDS011;6521;50.498;8.474;2022-10-17T02:36:40;5.97;;;5.38;;
12906;SDS011;6521;50.498;8.474;2022-10-17T02:39:16;5.05;;;4.57;;
12906;SDS011;6521;50.498;8.474;2022-10-17T02:41:49;4.75;;;4.35;;
12906;SDS011;6521;50.498;8.474;2022-10-17T02:44:22;5.43;;;4.85;;
12906;SDS011;6521;50.498;8.474;2022-10-17T02:46:58;5.60;;;4.88;;
12906;SDS011;6521;50.498;8.474;2022-10-17T02:49:38;5.05;;;4.63;;
12906;SDS011;6521;50.498;8.474;2022-10-17T02:52:14;5.65;;;5.00;;
12906;SDS011;6521;50.498;8.474;2022-10-17T02:58:22;4.93;;;4.53;;
12906;SDS011;6521;50.498;8.474;2022-10-17T03:00:37;5.88;;;4.90;;
12906;SDS011;6521;50.498;8.474;2022-10-17T03:03:22;5.72;;;4.93;;
12906;SDS011;6521;50.498;8.474;2022-10-17T03:05:55;5.30;;;4.80;;
12906;SDS011;6521;50.498;8.474;2022-10-17T03:08:29;6.38;;;5.70;;
12906;SDS011;6521;50.498;8.474;2022-10-17T03:11:00;5.35;;;4.75;;
12906;SDS011;6521;50.498;8.474;2022-10-17T03:13:31;6.10;;;5.53;;
12906;SDS011;6521;50.498;8.474;2022-10-17T03:16:03;5.63;;;5.03;;
12906;SDS011;6521;50.498;8.474;2022-10-17T03:18:36;6.05;;;5.20;;
12906;SDS011;6521;50.498;8.474;2022-10-17T03:21:07;8.93;;;6.07;;
12906;SDS011;6521;50.498;8.474;2022-10-17T03:23:38;6.20;;;5.32;;
12906;SDS011;6521;50.498;8.474;2022-10-17T03:26:10;8.27;;;5.22;;
12906;SDS011;6521;50.498;8.474;2022-10-17T03:28:40;6.30;;;5.68;;
12906;SDS011;6521;50.498;8.474;2022-10-17T03:31:12;5.78;;;5.10;;
12906;SDS011;6521;50.498;8.474;2022-10-17T03:33:45;7.07;;;5.40;;
12906;SDS011;6521;50.498;8.474;2022-10-17T03:36:17;6.03;;;5.45;;
12906;SDS011;6521;50.498;8.474;2022-10-17T03:38:53;7.55;;;6.43;;
12906;SDS011;6521;50.498;8.474;2022-10-17T03:41:25;6.88;;;6.28;;
12906;SDS011;6521;50.498;8.474;2022-10-17T03:43:55;7.03;;;5.60;;
12906;SDS011;6521;50.498;8.474;2022-10-17T03:46:27;6.80;;;6.10;;
12906;SDS011;6521;50.498;8.474;2022-10-17T03:49:00;6.53;;;5.80;;
12906;SDS011;6521;50.498;8.474;2022-10-17T03:51:31;7.43;;;6.65;;
12906;SDS011;6521;50.498;8.474;2022-10-17T03:54:07;7.55;;;6.75;;
12906;SDS011;6521;50.498;8.474;2022-10-17T03:56:38;7.85;;;6.60;;
12906;SDS011;6521;50.498;8.474;2022-10-17T03:59:14;8.20;;;7.45;;
12906;SDS011;6521;50.498;8.474;2022-10-17T04:01:48;8.90;;;8.10;;
12906;SDS011;6521;50.498;8.474;2022-10-17T04:04:20;8.88;;;8.05;;
12906;SDS011;6521;50.498;8.474;2022-10-17T04:06:51;9.57;;;8.68;;
12906;SDS011;6521;50.498;8.474;2022-10-17T04:09:21;12.45;;;8.45;;
12906;SDS011;6521;50.498;8.474;2022-10-17T04:11:59;8.88;;;7.97;;
12906;SDS011;6521;50.498;8.474;2022-10-17T04:14:29;8.77;;;7.97;;
12906;SDS011;6521;50.498;8.474;2022-10-17T04:17:01;8.02;;;7.25;;
12906;SDS011;6521;50.498;8.474;2022-10-17T04:19:32;8.65;;;7.85;;
12906;SDS011;6521;50.498;8.474;2022-10-17T04:22:03;8.77;;;7.97;;
12906;SDS011;6521;50.498;8.474;2022-10-17T04:24:37;9.43;;;8.52;;
12906;SDS011;6521;50.498;8.474;2022-10-17T04:27:28;8.77;;;7.55;;
12906;SDS011;6521;50.498;8.474;2022-10-17T04:29:58;10.63;;;8.07;;
12906;SDS011;6521;50.498;8.474;2022-10-17T04:32:29;8.75;;;7.90;;
12906;SDS011;6521;50.498;8.474;2022-10-17T04:35:11;8.63;;;7.82;;
12906;SDS011;6521;50.498;8.474;2022-10-17T04:37:46;8.25;;;7.53;;
12906;SDS011;6521;50.498;8.474;2022-10-17T04:40:21;9.32;;;8.10;;
12906;SDS011;6521;50.498;8.474;2022-10-17T04:42:54;8.23;;;7.28;;
12906;SDS011;6521;50.498;8.474;2022-10-17T04:45:32;10.02;;;7.72;;
12906;SDS011;6521;50.498;8.474;2022-10-17T04:48:07;8.77;;;7.97;;
12906;SDS011;6521;50.498;8.474;2022-10-17T04:50:38;10.55;;;8.40;;
12906;SDS011;6521;50.498;8.474;2022-10-17T04:53:30;7.97;;;7.18;;
12906;SDS011;6521;50.498;8.474;2022-10-17T04:56:09;8.30;;;7.53;;
12906;SDS011;6521;50.498;8.474;2022-10-17T04:58:48;13.13;;;7.95;;
12906;SDS011;6521;50.498;8.474;2022-10-17T05:01:20;10.55;;;8.02;;
12906;SDS011;6521;50.498;8.474;2022-10-17T05:03:55;9.13;;;7.97;;
12906;SDS011;6521;50.498;8.474;2022-10-17T05:06:26;10.43;;;7.65;;
12906;SDS011;6521;50.498;8.474;2022-10-17T05:09:21;9.88;;;8.38;;
12906;SDS011;6521;50.498;8.474;2022-10-17T05:11:52;11.48;;;7.88;;
12906;SDS011;6521;50.498;8.474;2022-10-17T05:14:23;11.73;;;8.43;;
12906;SDS011;6521;50.498;8.474;2022-10-17T05:16:54;10.95;;;8.18;;
12906;SDS011;6521;50.498;8.474;2022-10-17T05:19:25;8.55;;;7.75;;
12906;SDS011;6521;50.498;8.474;2022-10-17T05:21:56;8.25;;;7.40;;
12906;SDS011;6521;50.498;8.474;2022-10-17T05:24:26;9.75;;;8.50;;
12906;SDS011;6521;50.498;8.474;2022-10-17T05:26:57;9.05;;;7.82;;
12906;SDS011;6521;50.498;8.474;2022-10-17T05:29:28;13.70;;;8.50;;
12906;SDS011;6521;50.498;8.474;2022-10-17T05:32:07;9.27;;;7.38;;
12906;SDS011;6521;50.498;8.474;2022-10-17T05:34:39;13.32;;;7.40;;
12906;SDS011;6521;50.498;8.474;2022-10-17T05:37:10;10.93;;;7.18;;
12906;SDS011;6521;50.498;8.474;2022-10-17T05:39:41;9.85;;;7.53;;
12906;SDS011;6521;50.498;8.474;2022-10-17T05:42:13;11.23;;;7.30;;
12906;SDS011;6521;50.498;8.474;2022-10-17T05:44:44;10.20;;;6.50;;
12906;SDS011;6521;50.498;8.474;2022-10-17T05:47:17;8.35;;;6.72;;
12906;SDS011;6521;50.498;8.474;2022-10-17T05:49:48;14.10;;;7.55;;
12906;SDS011;6521;50.498;8.474;2022-10-17T05:52:20;11.13;;;7.18;;
12906;SDS011;6521;50.498;8.474;2022-10-17T05:55:09;18.35;;;7.10;;
12906;SDS011;6521;50.498;8.474;2022-10-17T05:57:39;11.00;;;6.53;;
12906;SDS011;6521;50.498;8.474;2022-10-17T06:00:14;10.30;;;6.15;;
12906;SDS011;6521;50.498;8.474;2022-10-17T06:02:45;11.20;;;6.55;;
12906;SDS011;6521;50.498;8.474;2022-10-17T06:05:19;11.45;;;7.03;;
12906;SDS011;6521;50.498;8.474;2022-10-17T06:07:51;9.75;;;6.88;;
12906;SDS011;6521;50.498;8.474;2022-10-17T06:10:23;11.80;;;7.20;;
12906;SDS011;6521;50.498;8.474;2022-10-17T06:12:53;9.50;;;7.13;;
12906;SDS011;6521;50.498;8.474;2022-10-17T06:15:24;14.65;;;6.53;;
12906;SDS011;6521;50.498;8.474;2022-10-17T06:18:01;9.15;;;7.10;;
12906;SDS011;6521;50.498;8.474;2022-10-17T06:20:32;9.07;;;7.07;;
12906;SDS011;6521;50.498;8.474;2022-10-17T06:23:03;7.90;;;7.10;;
12906;SDS011;6521;50.498;8.474;2022-10-17T06:25:49;8.10;;;6.90;;
12906;SDS011;6521;50.498;8.474;2022-10-17T06:28:20;9.95;;;6.40;;
12906;SDS011;6521;50.498;8.474;2022-10-17T06:30:51;6.88;;;6.20;;
12906;SDS011;6521;50.498;8.474;2022-10-17T06:33:22;8.60;;;7.10;;
12906;SDS011;6521;50.498;8.474;2022-10-17T06:35:54;6.97;;;6.38;;
12906;SDS011;6521;50.498;8.474;2022-10-17T06:38:27;9.07;;;6.73;;
12906;SDS011;6521;50.498;8.474;2022-10-17T06:41:05;9.80;;;7.20;;
12906;SDS011;6521;50.498;8.474;2022-10-17T06:43:39;10.57;;;8.02;;
12906;SDS011;6521;50.498;8.474;2022-10-17T06:46:31;17.08;;;9.07;;
12906;SDS011;6521;50.498;8.474;2022-10-17T06:49:08;12.85;;;9.48;;
12906;SDS011;6521;50.498;8.474;2022-10-17T06:51:54;12.18;;;8.50;;
12906;SDS011;6521;50.498;8.474;2022-10-17T06:54:33;9.70;;;8.30;;
12906;SDS011;6521;50.498;8.474;2022-10-17T06:57:30;10.45;;;6.65;;
12906;SDS011;6521;50.498;8.474;2022-10-17T07:00:20;9.88;;;6.15;;
12906;SDS011;6521;50.498;8.474;2022-10-17T07:02:55;7.40;;;6.05;;
12906;SDS011;6521;50.498;8.474;2022-10-17T07:05:26;6.88;;;5.57;;
12906;SDS011;6521;50.498;8.474;2022-10-17T07:07:57;10.82;;;5.50;;
12906;SDS011;6521;50.498;8.474;2022-10-17T07:10:28;8.02;;;5.13;;
12906;SDS011;6521;50.498;8.474;2022-10-17T07:12:59;5.80;;;4.97;;
12906;SDS011;6521;50.498;8.474;2022-10-17T07:15:29;8.23;;;4.78;;
12906;SDS011;6521;50.498;8.474;2022-10-17T07:18:02;6.65;;;3.72;;
12906;SDS011;6521;50.498;8.474;2022-10-17T07:20:33;5.47;;;3.80;;
12906;SDS011;6521;50.498;8.474;2022-10-17T07:23:04;5.90;;;4.57;;
12906;SDS011;6521;50.498;8.474;2022-10-17T07:25:35;7.85;;;4.40;;
12906;SDS011;6521;50.498;8.474;2022-10-17T07:28:10;5.95;;;4.32;;
12906;SDS011;6521;50.498;8.474;2022-10-17T07:30:41;10.45;;;4.05;;
12906;SDS011;6521;50.498;8.474;2022-10-17T07:33:15;7.10;;;4.43;;
12906;SDS011;6521;50.498;8.474;2022-10-17T07:35:46;7.00;;;3.80;;
12906;SDS011;6521;50.498;8.474;2022-10-17T07:38:17;4.95;;;3.92;;
12906;SDS011;6521;50.498;8.474;2022-10-17T07:40:52;10.05;;;4.25;;
12906;SDS011;6521;50.498;8.474;2022-10-17T07:43:24;4.95;;;3.58;;
12906;SDS011;6521;50.498;8.474;2022-10-17T07:45:57;7.03;;;4.00;;
12906;SDS011;6521;50.498;8.474;2022-10-17T07:48:28;7.75;;;3.97;;
12906;SDS011;6521;50.498;8.474;2022-10-17T07:51:01;6.00;;;3.92;;
12906;SDS011;6521;50.498;8.474;2022-10-17T07:53:34;4.68;;;3.97;;
12906;SDS011;6521;50.498;8.474;2022-10-17T07:56:06;7.47;;;4.40;;
12906;SDS011;6521;50.498;8.474;2022-10-17T07:58:38;5.65;;;3.58;;
12906;SDS011;6521;50.498;8.474;2022-10-17T08:01:09;8.20;;;3.60;;
12906;SDS011;6521;50.498;8.474;2022-10-17T08:03:43;6.18;;;3.60;;
12906;SDS011;6521;50.498;8.474;2022-10-17T08:06:15;8.95;;;3.70;;
12906;SDS011;6521;50.498;8.474;2022-10-17T08:08:47;3.75;;;3.35;;
12906;SDS011;6521;50.498;8.474;2022-10-17T08:11:17;6.60;;;3.22;;
12906;SDS011;6521;50.498;8.474;2022-10-17T08:13:48;4.43;;;3.15;;
12906;SDS011;6521;50.498;8.474;2022-10-17T08:16:19;4.43;;;3.13;;
12906;SDS011;6521;50.498;8.474;2022-10-17T08:18:50;5.43;;;3.20;;
12906;SDS011;6521;50.498;8.474;2022-10-17T08:21:21;7.75;;;3.05;;
12906;SDS011;6521;50.498;8.474;2022-10-17T08:23:51;4.90;;;3.13;;
12906;SDS011;6521;50.498;8.474;2022-10-17T08:26:22;6.28;;;3.03;;
12906;SDS011;6521;50.498;8.474;2022-10-17T08:28:53;8.00;;;3.70;;
12906;SDS011;6521;50.498;8.474;2022-10-17T08:31:24;7.40;;;3.33;;
12906;SDS011;6521;50.498;8.474;2022-10-17T08:33:56;4.05;;;3.13;;
12906;SDS011;6521;50.498;8.474;2022-10-17T08:36:27;4.22;;;2.75;;
12906;SDS011;6521;50.498;8.474;2022-10-17T08:38:58;3.42;;;2.78;;
12906;SDS011;6521;50.498;8.474;2022-10-17T08:47:02;7.35;;;2.83;;
12906;SDS011;6521;50.498;8.474;2022-10-17T08:52:30;6.20;;;3.22;;
12906;SDS011;6521;50.498;8.474;2022-10-17T08:55:26;3.45;;;3.08;;
12906;SDS011;6521;50.498;8.474;2022-10-17T08:58:20;4.93;;;2.85;;
12906;SDS011;6521;50.498;8.474;2022-10-17T09:01:05;5.35;;;2.92;;
12906;SDS011;6521;50.498;8.474;2022-10-17T09:06:34;3.13;;;2.33;;
12906;SDS011;6521;50.498;8.474;2022-10-17T09:09:17;8.73;;;2.60;;
12906;SDS011;6521;50.498;8.474;2022-10-17T09:12:00;7.55;;;2.60;;
12906;SDS011;6521;50.498;8.474;2022-10-17T09:17:14;15.23;;;2.65;;
12906;SDS011;6521;50.498;8.474;2022-10-17T09:22:46;6.60;;;2.88;;
12906;SDS011;6521;50.498;8.474;2022-10-17T09:25:24;4.63;;;2.28;;
12906;SDS011;6521;50.498;8.474;2022-10-17T09:33:40;3.92;;;2.38;;
12906;SDS011;6521;50.498;8.474;2022-10-17T09:36:16;5.45;;;2.80;;
12906;SDS011;6521;50.498;8.474;2022-10-17T09:38:51;3.30;;;2.97;;
12906;SDS011;6521;50.498;8.474;2022-10-17T09:41:34;7.72;;;3.47;;
12906;SDS011;6521;50.498;8.474;2022-10-17T09:46:55;4.38;;;2.25;;
12906;SDS011;6521;50.498;8.474;2022-10-17T09:49:39;3.97;;;2.63;;
12906;SDS011;6521;50.498;8.474;2022-10-17T09:52:17;5.30;;;2.50;;
12906;SDS011;6521;50.498;8.474;2022-10-17T09:54:52;3.63;;;2.17;;
12906;SDS011;6521;50.498;8.474;2022-10-17T09:57:27;6.57;;;2.20;;
12906;SDS011;6521;50.498;8.474;2022-10-17T10:00:20;13.15;;;2.60;;
12906;SDS011;6521;50.498;8.474;2022-10-17T10:03:08;5.25;;;2.70;;
12906;SDS011;6521;50.498;8.474;2022-10-17T10:05:44;6.18;;;2.28;;
12906;SDS011;6521;50.498;8.474;2022-10-17T10:08:30;5.60;;;2.40;;
12906;SDS011;6521;50.498;8.474;2022-10-17T10:11:05;5.53;;;1.80;;
12906;SDS011;6521;50.498;8.474;2022-10-17T10:13:37;3.53;;;2.03;;
12906;SDS011;6521;50.498;8.474;2022-10-17T10:19:20;5.72;;;2.50;;
12906;SDS011;6521;50.498;8.474;2022-10-17T10:21:59;3.83;;;2.00;;
12906;SDS011;6521;50.498;8.474;2022-10-17T10:24:32;5.20;;;2.00;;
12906;SDS011;6521;50.498;8.474;2022-10-17T10:27:02;6.45;;;2.10;;
12906;SDS011;6521;50.498;8.474;2022-10-17T10:29:36;10.27;;;2.22;;
12906;SDS011;6521;50.498;8.474;2022-10-17T10:32:10;3.80;;;1.90;;
12906;SDS011;6521;50.498;8.474;2022-10-17T10:34:48;6.57;;;2.20;;
12906;SDS011;6521;50.498;8.474;2022-10-17T10:37:25;6.40;;;2.60;;
12906;SDS011;6521;50.498;8.474;2022-10-17T10:40:19;2.47;;;2.00;;
12906;SDS011;6521;50.498;8.474;2022-10-17T10:43:03;7.28;;;2.35;;
12906;SDS011;6521;50.498;8.474;2022-10-17T10:48:17;4.32;;;2.65;;
12906;SDS011;6521;50.498;8.474;2022-10-17T10:51:00;6.80;;;3.00;;
12906;SDS011;6521;50.498;8.474;2022-10-17T10:53:43;4.28;;;2.53;;
12906;SDS011;6521;50.498;8.474;2022-10-17T10:56:29;4.47;;;2.10;;
12906;SDS011;6521;50.498;8.474;2022-10-17T11:01:50;7.47;;;2.28;;
12906;SDS011;6521;50.498;8.474;2022-10-17T11:09:50;4.88;;;2.20;;
12906;SDS011;6521;50.498;8.474;2022-10-17T11:12:56;4.60;;;2.50;;
12906;SDS011;6521;50.498;8.474;2022-10-17T11:15:34;7.40;;;2.40;;
12906;SDS011;6521;50.498;8.474;2022-10-17T11:18:07;9.38;;;2.28;;
12906;SDS011;6521;50.498;8.474;2022-10-17T11:20:46;6.88;;;2.83;;
12906;SDS011;6521;50.498;8.474;2022-10-17T11:26:07;5.80;;;2.40;;
12906;SDS011;6521;50.498;8.474;2022-10-17T11:28:43;5.03;;;2.50;;
12906;SDS011;6521;50.498;8.474;2022-10-17T11:31:13;9.93;;;2.97;;
12906;SDS011;6521;50.498;8.474;2022-10-17T11:36:36;8.35;;;2.72;;
12906;SDS011;6521;50.498;8.474;2022-10-17T11:39:21;3.75;;;2.22;;
12906;SDS011;6521;50.498;8.474;2022-10-17T11:42:17;10.43;;;2.50;;
12906;SDS011;6521;50.498;8.474;2022-10-17T11:45:07;8.15;;;2.30;;
12906;SDS011;6521;50.498;8.474;2022-10-17T11:47:44;7.97;;;2.42;;
12906;SDS011;6521;50.498;8.474;2022-10-17T11:50:35;8.32;;;2.30;;
12906;SDS011;6521;50.498;8.474;2022-10-17T11:53:10;6.18;;;3.20;;
12906;SDS011;6521;50.498;8.474;2022-10-17T11:55:45;6.28;;;2.28;;
12906;SDS011;6521;50.498;8.474;2022-10-17T12:09:40;9.43;;;2.53;;
12906;SDS011;6521;50.498;8.474;2022-10-17T12:12:28;5.03;;;2.45;;
12906;SDS011;6521;50.498;8.474;2022-10-17T12:17:42;6.30;;;2.20;;
12906;SDS011;6521;50.498;8.474;2022-10-17T12:22:57;8.32;;;2.55;;
12906;SDS011;6521;50.498;8.474;2022-10-17T12:25:30;5.35;;;2.67;;
12906;SDS011;6521;50.498;8.474;2022-10-17T12:30:36;5.25;;;2.15;;
12906;SDS011;6521;50.498;8.474;2022-10-17T12:33:30;7.00;;;2.58;;
12906;SDS011;6521;50.498;8.474;2022-10-17T12:38:47;5.68;;;3.10;;
12906;SDS011;6521;50.498;8.474;2022-10-17T12:54:57;4.63;;;2.75;;
12906;SDS011;6521;50.498;8.474;2022-10-17T13:00:50;7.47;;;2.55;;
12906;SDS011;6521;50.498;8.474;2022-10-17T13:03:05;3.50;;;2.50;;
12906;SDS011;6521;50.498;8.474;2022-10-17T13:05:42;5.05;;;2.72;;
12906;SDS011;6521;50.498;8.474;2022-10-17T13:08:22;6.03;;;2.53;;
12906;SDS011;6521;50.498;8.474;2022-10-17T13:10:54;7.78;;;2.70;;
12906;SDS011;6521;50.498;8.474;2022-10-17T13:13:48;3.85;;;2.38;;
12906;SDS011;6521;50.498;8.474;2022-10-17T13:16:29;7.72;;;2.47;;
12906;SDS011;6521;50.498;8.474;2022-10-17T13:19:11;9.55;;;2.80;;
12906;SDS011;6521;50.498;8.474;2022-10-17T13:21:55;12.10;;;2.60;;
12906;SDS011;6521;50.498;8.474;2022-10-17T13:24:31;5.90;;;2.70;;
12906;SDS011;6521;50.498;8.474;2022-10-17T13:30:00;5.22;;;2.65;;
12906;SDS011;6521;50.498;8.474;2022-10-17T13:32:36;8.02;;;2.83;;
12906;SDS011;6521;50.498;8.474;2022-10-17T13:35:10;5.45;;;2.72;;
12906;SDS011;6521;50.498;8.474;2022-10-17T13:37:44;13.52;;;3.22;;
12906;SDS011;6521;50.498;8.474;2022-10-17T13:40:20;7.55;;;2.40;;
12906;SDS011;6521;50.498;8.474;2022-10-17T13:42:54;6.25;;;2.60;;
12906;SDS011;6521;50.498;8.474;2022-10-17T13:48:03;8.55;;;2.75;;
12906;SDS011;6521;50.498;8.474;2022-10-17T13:50:37;6.05;;;2.90;;
12906;SDS011;6521;50.498;8.474;2022-10-17T13:53:30;4.60;;;2.83;;
12906;SDS011;6521;50.498;8.474;2022-10-17T13:56:04;3.63;;;2.45;;
12906;SDS011;6521;50.498;8.474;2022-10-17T13:58:50;4.28;;;2.58;;
12906;SDS011;6521;50.498;8.474;2022-10-17T14:01:23;7.30;;;2.95;;
12906;SDS011;6521;50.498;8.474;2022-10-17T14:03:57;5.75;;;2.53;;
12906;SDS011;6521;50.498;8.474;2022-10-17T14:06:28;8.52;;;3.15;;
12906;SDS011;6521;50.498;8.474;2022-10-17T14:09:01;8.38;;;2.70;;
12906;SDS011;6521;50.498;8.474;2022-10-17T14:11:37;8.38;;;3.30;;
12906;SDS011;6521;50.498;8.474;2022-10-17T14:14:28;4.60;;;2.30;;
12906;SDS011;6521;50.498;8.474;2022-10-17T14:16:59;7.95;;;2.75;;
12906;SDS011;6521;50.498;8.474;2022-10-17T14:19:31;8.30;;;2.97;;
12906;SDS011;6521;50.498;8.474;2022-10-17T14:22:16;7.15;;;2.67;;
12906;SDS011;6521;50.498;8.474;2022-10-17T14:24:54;3.92;;;2.53;;
12906;SDS011;6521;50.498;8.474;2022-10-17T14:27:30;6.10;;;2.80;;
12906;SDS011;6521;50.498;8.474;2022-10-17T14:32:56;10.23;;;2.92;;
12906;SDS011;6521;50.498;8.474;2022-10-17T14:35:30;12.77;;;3.25;;
12906;SDS011;6521;50.498;8.474;2022-10-17T14:38:02;9.82;;;3.00;;
12906;SDS011;6521;50.498;8.474;2022-10-17T14:40:35;6.78;;;2.55;;
12906;SDS011;6521;50.498;8.474;2022-10-17T14:43:05;6.50;;;3.33;;
12906;SDS011;6521;50.498;8.474;2022-10-17T14:45:37;5.90;;;3.63;;
12906;SDS011;6521;50.498;8.474;2022-10-17T14:48:13;6.78;;;3.22;;
12906;SDS011;6521;50.498;8.474;2022-10-17T14:54:03;8.88;;;2.97;;
12906;SDS011;6521;50.498;8.474;2022-10-17T14:56:41;7.00;;;2.72;;
12906;SDS011;6521;50.498;8.474;2022-10-17T14:59:12;7.28;;;3.47;;
12906;SDS011;6521;50.498;8.474;2022-10-17T15:01:50;7.28;;;3.08;;
12906;SDS011;6521;50.498;8.474;2022-10-17T15:04:21;6.00;;;2.85;;
12906;SDS011;6521;50.498;8.474;2022-10-17T15:07:11;8.90;;;3.15;;
12906;SDS011;6521;50.498;8.474;2022-10-17T15:09:44;7.07;;;2.88;;
12906;SDS011;6521;50.498;8.474;2022-10-17T15:12:18;5.97;;;2.90;;
12906;SDS011;6521;50.498;8.474;2022-10-17T15:14:51;9.60;;;3.33;;
12906;SDS011;6521;50.498;8.474;2022-10-17T15:17:24;6.95;;;3.00;;
12906;SDS011;6521;50.498;8.474;2022-10-17T15:19:57;4.45;;;2.70;;
12906;SDS011;6521;50.498;8.474;2022-10-17T15:22:28;9.95;;;2.80;;
12906;SDS011;6521;50.498;8.474;2022-10-17T15:25:00;5.28;;;3.08;;
12906;SDS011;6521;50.498;8.474;2022-10-17T15:27:31;6.75;;;2.67;;
12906;SDS011;6521;50.498;8.474;2022-10-17T15:30:02;5.20;;;2.80;;
12906;SDS011;6521;50.498;8.474;2022-10-17T15:32:33;9.00;;;3.03;;
12906;SDS011;6521;50.498;8.474;2022-10-17T15:35:04;4.45;;;2.50;;
12906;SDS011;6521;50.498;8.474;2022-10-17T15:37:35;8.63;;;2.72;;
12906;SDS011;6521;50.498;8.474;2022-10-17T15:40:08;9.73;;;2.60;;
12906;SDS011;6521;50.498;8.474;2022-10-17T15:42:43;6.07;;;2.78;;
12906;SDS011;6521;50.498;8.474;2022-10-17T15:45:15;12.63;;;3.67;;
12906;SDS011;6521;50.498;8.474;2022-10-17T15:47:54;9.65;;;2.83;;
12906;SDS011;6521;50.498;8.474;2022-10-17T15:50:35;7.68;;;2.75;;
12906;SDS011;6521;50.498;8.474;2022-10-17T15:53:09;5.40;;;2.70;;
12906;SDS011;6521;50.498;8.474;2022-10-17T15:55:41;13.20;;;2.95;;
12906;SDS011;6521;50.498;8.474;2022-10-17T15:58:13;8.10;;;2.90;;
12906;SDS011;6521;50.498;8.474;2022-10-17T16:00:45;7.30;;;3.50;;
12906;SDS011;6521;50.498;8.474;2022-10-17T16:03:17;5.43;;;2.67;;
12906;SDS011;6521;50.498;8.474;2022-10-17T16:05:48;8.68;;;2.97;;
12906;SDS011;6521;50.498;8.474;2022-10-17T16:08:18;11.88;;;2.97;;
12906;SDS011;6521;50.498;8.474;2022-10-17T16:10:49;8.77;;;2.55;;
12906;SDS011;6521;50.498;8.474;2022-10-17T16:13:21;8.30;;;3.58;;
12906;SDS011;6521;50.498;8.474;2022-10-17T16:15:53;4.25;;;2.30;;
12906;SDS011;6521;50.498;8.474;2022-10-17T16:18:24;7.35;;;2.65;;
12906;SDS011;6521;50.498;8.474;2022-10-17T16:20:55;13.13;;;2.97;;
12906;SDS011;6521;50.498;8.474;2022-10-17T16:23:25;8.07;;;4.00;;
12906;SDS011;6521;50.498;8.474;2022-10-17T16:25:56;8.75;;;5.20;;
12906;SDS011;6521;50.498;8.474;2022-10-17T16:28:27;9.80;;;4.97;;
12906;SDS011;6521;50.498;8.474;2022-10-17T16:30:57;7.68;;;3.67;;
12906;SDS011;6521;50.498;8.474;2022-10-17T16:33:28;12.13;;;3.63;;
12906;SDS011;6521;50.498;8.474;2022-10-17T16:36:00;9.32;;;3.25;;
12906;SDS011;6521;50.498;8.474;2022-10-17T16:38:31;7.00;;;3.88;;
12906;SDS011;6521;50.498;8.474;2022-10-17T16:41:02;6.82;;;3.17;;
12906;SDS011;6521;50.498;8.474;2022-10-17T16:43:33;6.45;;;3.30;;
12906;SDS011;6521;50.498;8.474;2022-10-17T16:46:05;8.63;;;3.42;;
12906;SDS011;6521;50.498;8.474;2022-10-17T16:48:36;6.95;;;3.28;;
12906;SDS011;6521;50.498;8.474;2022-10-17T16:51:07;14.13;;;4.88;;
12906;SDS011;6521;50.498;8.474;2022-10-17T16:53:38;10.02;;;3.67;;
12906;SDS011;6521;50.498;8.474;2022-10-17T16:56:14;7.35;;;3.65;;
12906;SDS011;6521;50.498;8.474;2022-10-17T16:58:47;5.65;;;3.40;;
12906;SDS011;6521;50.498;8.474;2022-10-17T17:01:19;5.72;;;3.20;;
12906;SDS011;6521;50.498;8.474;2022-10-17T17:03:53;8.15;;;4.13;;
12906;SDS011;6521;50.498;8.474;2022-10-17T17:06:25;7.30;;;3.72;;
12906;SDS011;6521;50.498;8.474;2022-10-17T17:08:58;6.53;;;3.63;;
12906;SDS011;6521;50.498;8.474;2022-10-17T17:11:28;7.18;;;3.47;;
12906;SDS011;6521;50.498;8.474;2022-10-17T17:14:00;9.15;;;3.85;;
12906;SDS011;6521;50.498;8.474;2022-10-17T17:16:32;9.82;;;3.65;;
12906;SDS011;6521;50.498;8.474;2022-10-17T17:19:05;6.45;;;2.95;;
12906;SDS011;6521;50.498;8.474;2022-10-17T17:21:37;4.40;;;2.45;;
12906;SDS011;6521;50.498;8.474;2022-10-17T17:24:08;6.35;;;2.97;;
12906;SDS011;6521;50.498;8.474;2022-10-17T17:26:39;5.20;;;3.13;;
12906;SDS011;6521;50.498;8.474;2022-10-17T17:29:10;5.00;;;2.90;;
12906;SDS011;6521;50.498;8.474;2022-10-17T17:31:41;7.88;;;3.03;;
12906;SDS011;6521;50.498;8.474;2022-10-17T17:34:12;5.63;;;2.92;;
12906;SDS011;6521;50.498;8.474;2022-10-17T17:36:43;3.60;;;2.85;;
12906;SDS011;6521;50.498;8.474;2022-10-17T17:39:14;8.13;;;3.35;;
12906;SDS011;6521;50.498;8.474;2022-10-17T17:41:45;7.53;;;3.17;;
12906;SDS011;6521;50.498;8.474;2022-10-17T17:44:15;7.15;;;3.55;;
12906;SDS011;6521;50.498;8.474;2022-10-17T17:46:46;9.40;;;3.53;;